Time;durP1;ratioP1;P1;durP2;ratioP2;P2;SDS_P1;SDS_P2;PMS_P1;PMS_P2;Temp;Humidity;BMP_temperature;BMP_pressure;BME280_temperature;BME280_humidity;BME280_pressure;Samples;Min_cycle;Max_cycle;Signal;HPM_P1;HPM_P2
2023/06/16 00:01:22;;;;;;;7.97;3.97;;;;;;;20.92;87.95;100688.44;5097616;28;20032;-74
2023/06/16 00:03:51;;;;;;;8.80;4.30;;;;;;;20.88;88.81;100687.53;5100253;28;20078;-74
2023/06/16 00:06:19;;;;;;;4.45;3.42;;;;;;;20.82;88.75;100694.59;5091610;28;20027;-74
2023/06/16 00:08:51;;;;;;;6.28;3.65;;;;;;;20.81;89.48;100687.31;5098435;28;20024;-74
2023/06/16 00:11:17;;;;;;;5.78;3.75;;;;;;;20.77;89.76;100677.09;5106889;28;20111;-74
2023/06/16 00:13:45;;;;;;;6.00;3.97;;;;;;;20.72;89.84;100679.00;5062552;28;20095;-74
2023/06/16 00:16:12;;;;;;;6.72;3.92;;;;;;;20.70;91.14;100681.38;5110765;28;20036;-74
2023/06/16 00:18:43;;;;;;;6.85;3.92;;;;;;;20.69;91.35;100676.88;5102486;28;20024;-74
2023/06/16 00:21:09;;;;;;;5.47;4.10;;;;;;;20.67;91.15;100686.88;5110453;28;20098;-74
2023/06/16 00:23:35;;;;;;;4.85;3.55;;;;;;;20.61;91.55;100683.50;5079151;28;20026;-74
2023/06/16 00:26:00;;;;;;;7.38;4.07;;;;;;;20.63;91.78;100675.50;5059397;28;20024;-74
2023/06/16 00:28:26;;;;;;;7.28;4.40;;;;;;;20.58;94.38;100667.28;5065961;28;20028;-74
2023/06/16 00:30:51;;;;;;;8.63;3.92;;;;;;;20.58;93.34;100667.28;5081205;28;20082;-74
2023/06/16 00:33:17;;;;;;;5.45;4.18;;;;;;;20.56;94.08;100664.03;5097369;28;20054;-74
2023/06/16 00:35:43;;;;;;;6.20;3.80;;;;;;;20.52;94.01;100663.06;5079167;28;20039;-74
2023/06/16 00:38:08;;;;;;;4.82;3.72;;;;;;;20.51;94.34;100667.06;5048738;28;20105;-74
2023/06/16 00:40:34;;;;;;;5.80;3.88;;;;;;;20.49;94.63;100664.59;5079009;28;20028;-74
2023/06/16 00:43:02;;;;;;;4.82;3.85;;;;;;;20.45;94.92;100657.22;5097059;28;20032;-74
2023/06/16 00:45:28;;;;;;;5.03;3.80;;;;;;;20.43;95.64;100651.09;5097080;28;20032;-74
2023/06/16 00:47:54;;;;;;;5.28;3.72;;;;;;;20.44;95.13;100658.38;5078981;28;20059;-74
2023/06/16 00:50:21;;;;;;;6.50;4.13;;;;;;;20.39;95.81;100655.81;5097057;28;20032;-74
2023/06/16 00:52:46;;;;;;;5.68;4.03;;;;;;;20.36;95.79;100664.97;5077499;28;20032;-74
2023/06/16 00:55:12;;;;;;;5.22;3.97;;;;;;;20.31;96.59;100658.44;5110314;28;20042;-74
2023/06/16 00:57:39;;;;;;;5.38;4.00;;;;;;;20.29;96.49;100655.13;5098200;28;20024;-74
2023/06/16 01:00:07;;;;;;;8.40;3.80;;;;;;;20.26;97.33;100661.50;5100863;28;20051;-74
2023/06/16 01:02:36;;;;;;;6.70;3.90;;;;;;;20.24;97.44;100658.19;5065730;28;20024;-74
2023/06/16 01:05:02;;;;;;;9.55;4.40;;;;;;;20.21;97.89;100660.91;5086856;28;20032;-74
2023/06/16 01:07:53;;;;;;;6.20;3.85;;;;;;;20.20;98.53;100653.66;5112728;28;20537;-74
2023/06/16 01:10:37;;;;;;;8.80;4.00;;;;;;;20.15;99.29;100648.25;5077367;28;20040;-74
2023/06/16 01:13:07;;;;;;;4.68;3.97;;;;;;;20.11;100.00;100653.75;5119894;28;20028;-74
2023/06/16 01:15:33;;;;;;;8.38;4.28;;;;;;;20.11;99.91;100653.75;5065938;28;20111;-74
2023/06/16 01:17:59;;;;;;;6.43;4.22;;;;;;;20.07;100.00;100647.19;5100227;28;20125;-74
2023/06/16 01:20:48;;;;;;;7.72;3.80;;;;;;;20.02;100.00;100644.63;5101418;28;20082;-74
2023/06/16 01:23:35;;;;;;;6.30;4.30;;;;;;;20.00;100.00;100642.16;5082150;28;20071;-74
2023/06/16 01:26:01;;;;;;;6.53;4.70;;;;;;;19.96;100.00;100637.59;5100418;28;20081;-74
2023/06/16 01:28:29;;;;;;;7.78;4.60;;;;;;;19.95;100.00;100638.78;5085586;28;20391;-74
2023/06/16 01:30:54;;;;;;;6.13;4.50;;;;;;;19.97;100.00;100636.41;5086498;28;20036;-74
2023/06/16 01:33:22;;;;;;;8.18;3.90;;;;;;;19.94;100.00;100637.94;5081633;28;20077;-74
2023/06/16 01:35:47;;;;;;;5.90;4.40;;;;;;;19.92;100.00;100639.44;5065472;28;20028;-74
2023/06/16 01:38:13;;;;;;;5.88;3.88;;;;;;;19.91;100.00;100646.28;5090693;28;20629;-74
2023/06/16 01:40:40;;;;;;;6.68;4.18;;;;;;;19.86;100.00;100645.34;5086055;28;20035;-74
2023/06/16 01:43:05;;;;;;;8.57;4.82;;;;;;;19.84;100.00;100638.44;5099805;28;20028;-74
2023/06/16 01:45:31;;;;;;;8.25;4.40;;;;;;;19.82;100.00;100641.59;5064996;28;20073;-74
2023/06/16 01:47:56;;;;;;;6.38;4.50;;;;;;;19.82;100.00;100641.59;5081539;28;20129;-74
2023/06/16 01:50:23;;;;;;;6.28;4.20;;;;;;;19.78;100.00;100640.66;5099792;28;20048;-74
2023/06/16 01:52:48;;;;;;;7.97;5.18;;;;;;;19.70;100.00;100637.97;5118664;28;20049;-74
2023/06/16 01:55:14;;;;;;;8.55;4.40;;;;;;;19.69;100.00;100639.94;5085044;28;20043;-74
2023/06/16 01:57:39;;;;;;;6.13;4.20;;;;;;;19.68;100.00;100640.31;5081432;28;20492;-74
2023/06/16 02:00:15;;;;;;;9.55;5.05;;;;;;;19.66;100.00;100628.56;5081709;28;20024;-74
2023/06/16 02:02:43;;;;;;;7.15;4.93;;;;;;;19.63;100.00;100632.88;5092591;28;20429;-74
2023/06/16 02:05:10;;;;;;;6.43;4.57;;;;;;;19.57;100.00;100628.66;5085252;28;20035;-74
2023/06/16 02:07:38;;;;;;;9.23;5.65;;;;;;;19.56;100.00;100625.03;5092776;28;20043;-74
2023/06/16 02:10:03;;;;;;;9.07;4.80;;;;;;;19.52;100.00;100626.06;5080701;28;20028;-74
2023/06/16 02:12:30;;;;;;;6.90;4.95;;;;;;;19.46;100.00;100622.66;5100792;28;20057;-74
2023/06/16 02:14:56;;;;;;;6.43;4.80;;;;;;;19.44;100.00;100630.63;5068371;28;20043;-74
2023/06/16 02:17:26;;;;;;;6.78;4.68;;;;;;;19.40;100.00;100624.91;5070258;28;20028;-74
2023/06/16 02:19:54;;;;;;;7.80;5.22;;;;;;;19.37;100.00;100631.22;5048235;28;20094;-74
2023/06/16 02:22:19;;;;;;;8.80;5.70;;;;;;;19.36;100.00;100621.16;5105507;28;20050;-74
2023/06/16 02:24:46;;;;;;;10.35;5.38;;;;;;;19.31;100.00;100621.38;5080596;28;20532;-74
2023/06/16 02:27:13;;;;;;;8.13;5.25;;;;;;;19.28;100.00;100619.25;5064340;28;20474;-74
2023/06/16 02:29:39;;;;;;;7.50;5.57;;;;;;;19.27;100.00;100613.97;5098512;28;20040;-74
2023/06/16 02:32:05;;;;;;;6.90;5.05;;;;;;;19.23;100.00;100616.66;5099042;28;20031;-74
2023/06/16 02:34:30;;;;;;;7.18;5.00;;;;;;;19.20;100.00;100614.56;5099063;28;20027;-74
2023/06/16 02:36:56;;;;;;;6.75;4.70;;;;;;;19.19;100.00;100612.91;5080786;28;20036;-74
2023/06/16 02:39:22;;;;;;;7.28;5.25;;;;;;;19.13;100.00;100608.69;5116901;28;20039;-74
2023/06/16 02:41:48;;;;;;;5.95;5.05;;;;;;;19.12;100.00;100605.03;5089151;28;20052;-74
2023/06/16 02:44:14;;;;;;;9.18;4.85;;;;;;;19.09;100.00;100602.13;5063951;28;20036;-74
2023/06/16 02:46:39;;;;;;;8.80;5.28;;;;;;;19.06;100.00;100597.19;5080362;28;20043;-74
2023/06/16 02:49:06;;;;;;;7.03;5.00;;;;;;;19.04;100.00;100588.25;5112166;28;20039;-74
2023/06/16 02:51:31;;;;;;;10.52;5.32;;;;;;;19.01;100.00;100592.59;5106691;28;20066;-74
2023/06/16 02:53:59;;;;;;;10.52;5.10;;;;;;;18.99;100.00;100597.75;5077805;28;20024;-74
2023/06/16 02:56:25;;;;;;;8.18;4.90;;;;;;;18.95;100.00;100599.63;5111633;28;20028;-74
2023/06/16 02:58:50;;;;;;;8.80;5.03;;;;;;;18.91;100.00;100601.47;5064320;28;20032;-74
2023/06/16 03:01:16;;;;;;;8.73;5.80;;;;;;;18.90;100.00;100605.47;5056575;28;20078;-74
2023/06/16 03:03:42;;;;;;;7.25;5.57;;;;;;;18.88;100.00;100605.81;5079224;28;20024;-74
2023/06/16 03:06:08;;;;;;;7.05;5.10;;;;;;;18.85;100.00;100611.31;5074097;28;20039;-74
2023/06/16 03:08:34;;;;;;;9.23;5.70;;;;;;;18.80;100.00;100606.72;5083095;28;20110;-74
2023/06/16 03:10:59;;;;;;;8.30;5.85;;;;;;;18.75;100.00;100612.59;5105296;28;20441;-74
2023/06/16 03:13:25;;;;;;;6.78;5.90;;;;;;;18.70;100.00;100602.34;5079512;28;20028;-74
2023/06/16 03:15:52;;;;;;;9.55;6.20;;;;;;;18.66;100.00;100614.63;5073680;28;20028;-74
2023/06/16 03:18:18;;;;;;;9.90;6.05;;;;;;;18.66;100.00;100609.81;5084798;28;20028;-74
2023/06/16 03:20:45;;;;;;;9.63;6.13;;;;;;;18.61;100.00;100603.56;5114312;28;20494;-74
2023/06/16 03:23:11;;;;;;;8.55;6.10;;;;;;;18.60;100.00;100596.31;5097655;28;20032;-74
2023/06/16 03:25:38;;;;;;;8.68;6.00;;;;;;;18.57;100.00;100592.22;5079918;28;20036;-74
2023/06/16 03:28:06;;;;;;;9.00;5.90;;;;;;;18.56;100.00;100595.38;5084535;28;20498;-74
2023/06/16 03:30:32;;;;;;;10.50;5.88;;;;;;;18.50;100.00;100598.41;5082717;28;20115;-74
2023/06/16 03:32:58;;;;;;;10.18;6.18;;;;;;;18.50;100.00;100597.59;5081552;28;20049;-74
2023/06/16 03:35:23;;;;;;;8.40;5.90;;;;;;;18.47;100.00;100601.06;5097813;28;20032;-74
2023/06/16 03:37:49;;;;;;;8.25;5.40;;;;;;;18.44;100.00;100602.59;5067590;28;20377;-74
2023/06/16 03:40:17;;;;;;;7.97;6.15;;;;;;;18.41;100.00;100606.06;5087812;28;20031;-74
2023/06/16 03:42:42;;;;;;;10.02;6.18;;;;;;;18.41;100.00;100608.06;5076079;28;20039;-74
2023/06/16 03:45:08;;;;;;;8.45;5.70;;;;;;;18.38;100.00;100595.53;5110105;28;20032;-74
2023/06/16 03:47:33;;;;;;;9.57;6.38;;;;;;;18.35;100.00;100604.66;5082955;28;20055;-74
2023/06/16 03:49:59;;;;;;;9.25;6.70;;;;;;;18.31;100.00;100601.72;5105743;28;20438;-74
2023/06/16 03:52:25;;;;;;;9.60;6.28;;;;;;;18.28;100.00;100595.97;5095252;28;20016;-74
2023/06/16 03:54:51;;;;;;;9.63;6.07;;;;;;;18.26;100.00;100603.91;5079143;28;20036;-74
2023/06/16 03:57:17;;;;;;;9.90;6.18;;;;;;;18.21;100.00;100604.13;5111362;28;20031;-74
2023/06/16 03:59:42;;;;;;;7.93;6.10;;;;;;;18.20;100.00;100600.50;5079603;28;20028;-74
2023/06/16 04:02:07;;;;;;;8.95;6.18;;;;;;;18.18;100.00;100602.00;5097475;28;20081;-74
2023/06/16 04:04:33;;;;;;;8.82;6.25;;;;;;;18.20;100.00;100606.13;5049810;28;20032;-74
2023/06/16 04:07:00;;;;;;;8.68;5.78;;;;;;;18.15;100.00;100603.50;5092646;28;20448;-74
2023/06/16 04:09:26;;;;;;;10.30;6.80;;;;;;;18.15;100.00;100611.13;5069988;28;20107;-74
2023/06/16 04:11:51;;;;;;;10.20;6.53;;;;;;;18.11;100.00;100611.00;5114920;28;20034;-74
2023/06/16 04:14:17;;;;;;;6.43;5.53;;;;;;;18.09;100.00;100613.31;5079206;28;20028;-74
2023/06/16 04:16:42;;;;;;;11.15;6.63;;;;;;;18.09;100.00;100616.13;5062526;28;20035;-74
2023/06/16 04:19:09;;;;;;;10.68;6.68;;;;;;;18.11;100.00;100613.81;5073359;28;20328;-74
2023/06/16 04:21:36;;;;;;;10.38;7.38;;;;;;;18.07;100.00;100613.63;5088612;28;20025;-74
2023/06/16 04:24:02;;;;;;;11.43;7.25;;;;;;;18.07;100.00;100612.81;5063045;28;20493;-74
2023/06/16 04:26:28;;;;;;;9.23;6.35;;;;;;;18.06;100.00;100616.81;5059679;28;20032;-74
2023/06/16 04:28:55;;;;;;;8.57;6.95;;;;;;;18.05;100.00;100624.44;5066140;28;20028;-74
2023/06/16 04:31:21;;;;;;;6.85;6.00;;;;;;;18.06;100.00;100623.25;5082580;28;20028;-74
2023/06/16 04:33:48;;;;;;;9.10;6.53;;;;;;;18.05;100.00;100630.03;5108970;28;20040;-74
2023/06/16 04:36:14;;;;;;;9.35;6.68;;;;;;;18.04;100.00;100624.75;5066201;28;20358;-74
2023/06/16 04:38:39;;;;;;;8.38;6.57;;;;;;;18.03;100.00;100629.56;5094758;28;20031;-74
2023/06/16 04:41:05;;;;;;;10.80;7.57;;;;;;;18.04;100.00;100625.56;5102469;28;20031;-74
2023/06/16 04:43:30;;;;;;;10.32;7.22;;;;;;;18.04;100.00;100621.94;5101148;28;20464;-74
2023/06/16 04:45:57;;;;;;;10.80;7.55;;;;;;;18.03;100.00;100629.56;5082714;28;20028;-74
2023/06/16 04:48:24;;;;;;;9.85;7.00;;;;;;;18.05;100.00;100621.63;5082671;28;20107;-74
2023/06/16 04:50:49;;;;;;;8.35;7.00;;;;;;;18.07;100.00;100619.25;5103069;28;20064;-74
2023/06/16 04:53:15;;;;;;;8.48;7.20;;;;;;;18.11;100.00;100619.41;5120979;28;20034;-74
2023/06/16 04:55:40;;;;;;;10.68;6.95;;;;;;;18.15;100.00;100613.94;5101408;28;20028;-74
2023/06/16 04:58:06;;;;;;;10.55;7.13;;;;;;;18.15;100.00;100611.13;5100892;28;20032;-74
2023/06/16 05:00:31;;;;;;;8.27;6.78;;;;;;;18.19;100.00;100604.47;5100609;28;20024;-74
2023/06/16 05:02:57;;;;;;;8.73;6.57;;;;;;;18.25;100.00;100608.72;5103389;28;20027;-74
2023/06/16 05:05:23;;;;;;;10.90;6.22;;;;;;;18.29;100.00;100603.22;5104826;28;20085;-74
2023/06/16 05:07:48;;;;;;;8.88;7.07;;;;;;;18.34;100.00;100605.00;5109630;28;20036;-74
2023/06/16 05:10:14;;;;;;;9.95;6.70;;;;;;;18.36;100.00;100600.69;5082927;28;20058;-74
2023/06/16 05:12:39;;;;;;;9.70;6.50;;;;;;;18.41;100.00;100597.66;5085962;28;20042;-74
2023/06/16 05:15:05;;;;;;;9.20;6.10;;;;;;;18.46;100.00;100596.63;5084872;28;20024;-74
2023/06/16 05:17:31;;;;;;;8.27;6.72;;;;;;;18.50;100.00;100603.22;5082267;28;20027;-74
2023/06/16 05:19:56;;;;;;;11.70;7.43;;;;;;;18.53;100.00;100608.16;5098301;28;20024;-74
2023/06/16 05:22:25;;;;;;;8.77;7.18;;;;;;;18.54;100.00;100609.78;5073983;28;20032;-74
2023/06/16 05:24:53;;;;;;;11.93;7.63;;;;;;;18.57;100.00;100605.44;5081084;28;20032;-74
2023/06/16 05:27:22;;;;;;;12.25;8.68;;;;;;;18.61;100.00;100609.22;5112322;28;20028;-74
2023/06/16 05:29:50;;;;;;;13.98;7.95;;;;;;;18.61;100.00;100609.22;5079795;28;20157;-74
2023/06/16 05:32:15;;;;;;;10.25;7.50;;;;;;;18.61;100.00;100603.56;5089541;28;20031;-74
2023/06/16 05:34:41;;;;;;;11.50;7.45;;;;;;;18.63;100.00;100613.31;5062092;28;20035;-74
2023/06/16 05:37:06;;;;;;;15.02;8.60;;;;;;;18.67;100.00;100610.66;5110045;28;20024;-74
2023/06/16 05:39:32;;;;;;;10.38;7.18;;;;;;;18.72;100.00;100611.25;5081474;28;20036;-74
2023/06/16 05:41:57;;;;;;;14.95;8.75;;;;;;;18.79;100.00;100616.34;5081799;28;20368;-74
2023/06/16 05:44:23;;;;;;;13.20;9.77;;;;;;;18.86;100.00;100613.78;5099355;28;20032;-74
2023/06/16 05:46:48;;;;;;;11.98;8.50;;;;;;;18.95;100.00;100614.50;5064822;28;20028;-74
2023/06/16 05:49:14;;;;;;;17.42;11.90;;;;;;;19.03;100.00;100614.75;5084602;28;20053;-74
2023/06/16 05:51:39;;;;;;;12.82;10.60;;;;;;;19.10;100.00;100610.19;5094975;28;20062;-74
2023/06/16 05:54:05;;;;;;;15.13;10.65;;;;;;;19.22;100.00;100605.75;5078100;28;20036;-74
2023/06/16 05:56:30;;;;;;;10.27;7.90;;;;;;;19.34;100.00;100608.59;5113018;28;20031;-75
2023/06/16 05:58:56;;;;;;;13.73;10.07;;;;;;;19.41;100.00;100614.44;5081594;28;20024;-75
2023/06/16 06:01:21;;;;;;;15.15;10.45;;;;;;;19.56;100.00;100618.56;5074518;28;20028;-75
2023/06/16 06:03:47;;;;;;;13.73;10.00;;;;;;;19.71;100.00;100617.06;5077922;28;20024;-74
2023/06/16 06:06:12;;;;;;;14.52;10.25;;;;;;;19.83;100.00;100615.03;5110517;28;20024;-75
2023/06/16 06:08:39;;;;;;;16.25;10.55;;;;;;;20.01;100.00;100618.44;5063228;28;20032;-75
2023/06/16 06:11:06;;;;;;;19.80;11.13;;;;;;;20.14;100.00;100615.56;5088837;28;20476;-75
2023/06/16 06:13:32;;;;;;;15.90;11.10;;;;;;;20.27;100.00;100618.00;5079998;28;20063;-75
2023/06/16 06:15:58;;;;;;;17.02;11.93;;;;;;;20.39;100.00;100613.50;5081304;28;20042;-75
2023/06/16 06:18:23;;;;;;;14.40;9.35;;;;;;;20.56;100.00;100624.53;5082701;28;20019;-74
2023/06/16 06:20:49;;;;;;;11.65;9.23;;;;;;;20.74;100.00;100631.47;5063689;28;20085;-75
2023/06/16 06:23:15;;;;;;;12.05;8.23;;;;;;;20.96;100.00;100626.44;5094460;28;20502;-75
2023/06/16 06:25:42;;;;;;;16.45;9.30;;;;;;;21.08;100.00;100629.19;5081023;28;20134;-75
2023/06/16 06:28:08;;;;;;;12.27;8.93;;;;;;;21.27;100.00;100634.13;5104093;28;20030;-75
2023/06/16 06:30:33;;;;;;;14.07;10.27;;;;;;;21.43;100.00;100636.97;5119047;28;20067;-75
2023/06/16 06:33:00;;;;;;;16.15;11.57;;;;;;;21.55;100.00;100636.88;5099618;28;20500;-75
2023/06/16 06:35:25;;;;;;;14.73;9.70;;;;;;;21.70;100.00;100620.25;5056688;28;20039;-75
2023/06/16 06:37:51;;;;;;;16.02;10.45;;;;;;;21.84;100.00;100623.44;5085759;28;20028;-75
2023/06/16 06:40:17;;;;;;;14.15;9.85;;;;;;;22.00;100.00;100629.88;5088784;28;20028;-75
2023/06/16 06:42:42;;;;;;;15.50;9.70;;;;;;;22.15;100.00;100635.84;5082308;28;20388;-75
2023/06/16 06:45:10;;;;;;;13.02;8.35;;;;;;;22.30;100.00;100637.84;5111555;28;20024;-75
2023/06/16 06:47:36;;;;;;;11.00;8.68;;;;;;;22.43;100.00;100635.72;5098786;28;20040;-75
2023/06/16 06:50:03;;;;;;;11.38;7.97;;;;;;;22.60;100.00;100646.56;5098566;28;20120;-75
2023/06/16 06:52:28;;;;;;;10.73;7.65;;;;;;;22.73;100.00;100641.56;5080502;28;20567;-75
2023/06/16 06:54:56;;;;;;;8.60;6.85;;;;;;;22.86;100.00;100653.56;5111104;28;20151;-75
2023/06/16 06:57:22;;;;;;;10.48;6.30;;;;;;;22.99;100.00;100652.22;5080667;28;20551;-75
2023/06/16 06:59:47;;;;;;;9.15;5.38;;;;;;;23.11;100.00;100660.53;5063676;28;20023;-75
2023/06/16 07:02:13;;;;;;;13.10;6.85;;;;;;;23.29;100.00;100666.56;5080348;28;20035;-75
2023/06/16 07:04:39;;;;;;;8.15;5.53;;;;;;;23.44;100.00;100655.47;5083124;28;20028;-75
2023/06/16 07:07:05;;;;;;;9.52;6.38;;;;;;;23.58;100.00;100653.69;5093599;28;20031;-75
2023/06/16 07:09:30;;;;;;;13.27;8.40;;;;;;;23.67;100.00;100642.09;5067212;28;20032;-75
2023/06/16 07:11:56;;;;;;;10.93;7.28;;;;;;;23.84;100.00;100643.59;5114158;28;20100;-75
2023/06/16 07:14:22;;;;;;;15.30;9.32;;;;;;;24.00;100.00;100640.59;5112436;28;20490;-75
2023/06/16 07:16:47;;;;;;;14.77;9.70;;;;;;;24.09;100.00;100641.13;5081928;28;20506;-75
2023/06/16 07:19:13;;;;;;;9.95;5.78;;;;;;;24.28;100.00;100641.00;5090091;28;20487;-75
2023/06/16 07:21:38;;;;;;;15.93;10.15;;;;;;;24.36;100.00;100643.94;5079606;28;20020;-75
2023/06/16 07:24:05;;;;;;;11.38;7.93;;;;;;;24.51;100.00;100643.75;5071400;28;20020;-75
2023/06/16 07:26:31;;;;;;;9.65;6.40;;;;;;;24.73;100.00;100646.88;5116245;28;20031;-75
2023/06/16 07:28:56;;;;;;;6.03;4.47;;;;;;;24.90;99.71;100645.44;5100049;28;20024;-75
2023/06/16 07:31:22;;;;;;;9.18;5.93;;;;;;;25.08;100.00;100657.84;5081289;28;20043;-75
2023/06/16 07:33:47;;;;;;;8.65;5.47;;;;;;;25.22;100.00;100659.22;5097909;28;20036;-75
2023/06/16 07:36:13;;;;;;;5.90;4.32;;;;;;;25.41;96.08;100656.97;5097869;28;20032;-75
2023/06/16 07:38:38;;;;;;;9.50;5.35;;;;;;;25.57;96.33;100662.38;5109535;28;20434;-75
2023/06/16 07:41:06;;;;;;;5.50;3.90;;;;;;;25.73;94.77;100658.47;5099304;28;20020;-75
2023/06/16 07:43:31;;;;;;;9.85;4.05;;;;;;;25.92;91.95;100658.22;5097724;28;20040;-75
2023/06/16 07:45:57;;;;;;;9.27;5.68;;;;;;;26.05;93.96;100656.69;5097628;28;20089;-75
2023/06/16 07:48:22;;;;;;;6.40;4.65;;;;;;;26.23;91.65;100647.44;5097914;28;20048;-75
2023/06/16 07:50:48;;;;;;;11.65;7.60;;;;;;;26.30;93.01;100656.03;5099666;28;20028;-75
2023/06/16 07:53:13;;;;;;;8.73;4.55;;;;;;;26.51;90.67;100650.47;5117713;28;20430;-75
2023/06/16 07:55:39;;;;;;;6.45;4.03;;;;;;;26.73;87.17;100644.88;5098911;28;20025;-75
2023/06/16 07:58:04;;;;;;;4.85;3.58;;;;;;;26.92;86.26;100638.00;5071595;28;20117;-75
2023/06/16 08:00:29;;;;;;;9.80;5.93;;;;;;;26.92;87.36;100641.66;5093005;28;20066;-75
2023/06/16 08:02:55;;;;;;;14.52;7.13;;;;;;;26.94;85.84;100642.09;5101802;28;20035;-75
2023/06/16 08:05:21;;;;;;;7.25;5.88;;;;;;;27.13;84.81;100642.94;5032637;28;20024;-75
2023/06/16 08:07:46;;;;;;;9.13;6.32;;;;;;;27.21;84.09;100629.53;5108340;28;20035;-75
2023/06/16 08:10:12;;;;;;;7.75;6.65;;;;;;;27.34;83.77;100637.28;5115681;28;20157;-75
2023/06/16 08:12:37;;;;;;;6.35;3.95;;;;;;;27.58;80.75;100632.84;5122156;28;20031;-76
2023/06/16 08:15:03;;;;;;;6.28;4.00;;;;;;;27.75;79.91;100636.91;5086634;28;20035;-76
2023/06/16 08:17:29;;;;;;;6.72;4.03;;;;;;;27.92;78.99;100631.63;5083551;28;20036;-76
2023/06/16 08:19:54;;;;;;;7.38;4.03;;;;;;;28.09;77.26;100635.66;5117275;28;20548;-76
2023/06/16 08:22:20;;;;;;;9.27;4.72;;;;;;;28.17;75.01;100648.69;5086642;28;20503;-76
2023/06/16 08:24:45;;;;;;;6.65;4.22;;;;;;;28.29;75.82;100634.78;5101088;28;20059;-75
2023/06/16 08:27:11;;;;;;;6.50;3.80;;;;;;;28.44;74.39;100646.97;5101491;28;20070;-76
2023/06/16 08:29:37;;;;;;;5.55;4.18;;;;;;;28.56;73.88;100647.78;5115438;28;20472;-76
2023/06/16 08:32:02;;;;;;;9.60;5.38;;;;;;;28.57;69.62;100644.50;5101213;28;20090;-76
2023/06/16 08:34:28;;;;;;;7.35;4.40;;;;;;;28.81;68.12;100636.25;5083251;28;20084;-76
2023/06/16 08:36:54;;;;;;;11.85;4.82;;;;;;;28.92;66.95;100634.94;5105501;27;20028;-75
2023/06/16 08:39:19;;;;;;;8.43;5.90;;;;;;;29.04;65.87;100639.38;5101688;28;20063;-76
2023/06/16 08:41:45;;;;;;;8.18;5.57;;;;;;;29.13;63.52;100634.00;5111579;28;20026;-76
2023/06/16 08:44:13;;;;;;;6.75;4.95;;;;;;;29.21;61.37;100633.97;5082580;28;20434;-76
2023/06/16 08:46:38;;;;;;;10.27;5.43;;;;;;;29.39;62.28;100637.50;5066647;28;20024;-76
2023/06/16 08:49:04;;;;;;;5.45;3.50;;;;;;;29.58;61.48;100634.06;5107681;28;20032;-76
2023/06/16 08:51:33;;;;;;;6.88;3.88;;;;;;;29.72;63.29;100632.34;5108868;28;20495;-76
2023/06/16 08:54:00;;;;;;;8.25;5.07;;;;;;;29.74;61.43;100627.84;5082620;28;20060;-76
2023/06/16 08:56:29;;;;;;;6.97;4.53;;;;;;;29.91;60.44;100639.53;5095124;28;20097;-76
2023/06/16 08:58:57;;;;;;;7.50;4.38;;;;;;;30.12;60.93;100633.59;5086277;28;20028;-76
2023/06/16 09:01:24;;;;;;;9.45;5.35;;;;;;;30.17;58.51;100623.72;5090391;28;20047;-76
2023/06/16 09:03:50;;;;;;;8.05;4.97;;;;;;;30.34;55.77;100628.47;5069158;28;20049;-76
2023/06/16 09:06:15;;;;;;;6.45;4.03;;;;;;;30.52;56.10;100625.38;5109492;28;20028;-76
2023/06/16 09:08:41;;;;;;;6.53;3.60;;;;;;;30.73;58.07;100633.72;5100115;28;20051;-76
2023/06/16 09:11:07;;;;;;;6.93;4.07;;;;;;;30.90;56.68;100616.72;5111907;28;20028;-76
2023/06/16 09:13:33;;;;;;;6.85;4.32;;;;;;;31.02;54.51;100609.59;5099821;28;20479;-76
2023/06/16 09:15:59;;;;;;;4.50;4.07;;;;;;;31.16;54.09;100609.38;5107856;28;20051;-76
2023/06/16 09:18:37;;;;;;;9.05;5.25;;;;;;;31.26;50.89;100601.81;5081354;28;20020;-76
2023/06/16 09:21:06;;;;;;;5.80;4.53;;;;;;;31.39;50.49;100600.81;5095687;28;20121;-76
2023/06/16 09:23:32;;;;;;;6.57;4.38;;;;;;;31.61;51.78;100597.56;5099971;28;20028;-76
2023/06/16 09:25:57;;;;;;;10.10;5.07;;;;;;;31.75;52.19;100594.44;5100210;28;20545;-76
2023/06/16 09:28:36;;;;;;;9.35;4.97;;;;;;;31.91;50.13;100596.66;5089359;28;20483;-76
2023/06/16 09:31:11;;;;;;;7.35;5.20;;;;;;;31.98;49.67;100604.31;5117643;28;20042;-76
2023/06/16 09:33:37;;;;;;;8.95;4.75;;;;;;;32.09;49.68;100602.03;5100111;28;20380;-76
2023/06/16 09:36:02;;;;;;;7.47;4.40;;;;;;;32.20;49.77;100596.09;5081800;28;20036;-76
2023/06/16 09:38:35;;;;;;;4.32;3.58;;;;;;;32.36;51.00;100599.03;5087504;28;20024;-76
2023/06/16 09:41:21;;;;;;;4.63;4.07;;;;;;;32.54;51.85;100601.59;5082063;28;20031;-76
2023/06/16 09:43:46;;;;;;;6.38;4.15;;;;;;;32.65;51.30;100596.41;5082941;28;20051;-76
2023/06/16 09:46:12;;;;;;;6.07;4.53;;;;;;;32.75;51.25;100597.41;5081662;28;20365;-76
2023/06/16 09:48:50;;;;;;;7.13;4.60;;;;;;;32.84;49.75;100591.84;5103524;28;20039;-76
2023/06/16 09:51:21;;;;;;;7.10;4.53;;;;;;;32.93;50.60;100592.06;5098401;28;20488;-76
2023/06/16 09:53:46;;;;;;;5.68;4.13;;;;;;;33.08;50.49;100592.56;5097909;28;20427;-76
2023/06/16 09:56:18;;;;;;;6.68;4.70;;;;;;;33.24;50.04;100591.78;5099582;28;20028;-77
2023/06/16 09:58:45;;;;;;;6.40;4.45;;;;;;;33.32;49.94;100596.09;5099403;28;20050;-76
2023/06/16 10:01:10;;;;;;;6.47;4.15;;;;;;;33.38;50.13;100594.28;5081527;28;20110;-76
2023/06/16 10:03:39;;;;;;;6.85;4.32;;;;;;;33.51;50.63;100591.47;5102488;28;20055;-76
2023/06/16 10:06:12;;;;;;;4.97;4.47;;;;;;;33.55;49.39;100577.84;5091347;28;20138;-77
2023/06/16 10:08:39;;;;;;;6.03;4.75;;;;;;;33.56;49.14;100582.34;5101535;28;20023;-76
2023/06/16 10:11:05;;;;;;;6.13;4.78;;;;;;;33.67;49.60;100581.25;5089313;28;20028;-77
2023/06/16 10:13:30;;;;;;;8.85;4.53;;;;;;;33.67;47.60;100584.13;5081105;28;20024;-76
2023/06/16 10:15:56;;;;;;;7.35;5.15;;;;;;;33.72;47.86;100580.72;5092619;28;20065;-76
2023/06/16 10:18:21;;;;;;;6.70;4.80;;;;;;;33.73;46.92;100585.19;5104003;28;20031;-76
2023/06/16 10:20:47;;;;;;;7.13;5.07;;;;;;;33.87;48.25;100579.03;5097296;28;20023;-76
2023/06/16 10:23:12;;;;;;;9.80;5.63;;;;;;;33.87;47.18;100584.81;5080616;28;20028;-80
2023/06/16 10:25:40;;;;;;;6.18;4.82;;;;;;;34.04;46.76;100585.56;5081054;28;20028;-76
2023/06/16 10:28:07;;;;;;;7.60;4.95;;;;;;;34.14;47.09;100577.94;5103887;28;20031;-76
2023/06/16 10:30:34;;;;;;;6.10;4.53;;;;;;;34.38;48.29;100575.56;5100372;28;20023;-76
2023/06/16 10:32:59;;;;;;;10.05;5.50;;;;;;;34.51;47.59;100567.75;5084388;28;20062;-76
2023/06/16 10:35:25;;;;;;;11.63;5.60;;;;;;;34.59;45.92;100565.50;5106816;28;20040;-76
2023/06/16 10:37:55;;;;;;;8.48;5.03;;;;;;;34.75;45.73;100570.38;5103975;28;20023;-76
2023/06/16 10:40:21;;;;;;;7.55;5.32;;;;;;;34.84;47.31;100561.84;5106069;28;20024;-76
2023/06/16 10:42:47;;;;;;;8.18;4.90;;;;;;;35.00;46.75;100549.38;5098903;28;20028;-76
2023/06/16 10:45:28;;;;;;;8.45;4.93;;;;;;;35.16;46.52;100557.94;5098626;28;20543;-76
2023/06/16 10:47:57;;;;;;;7.72;5.30;;;;;;;35.32;46.53;100554.91;5089172;28;20047;-77
2023/06/16 10:50:38;;;;;;;9.10;5.47;;;;;;;35.44;45.60;100555.34;5102718;28;20036;-77
2023/06/16 10:53:14;;;;;;;8.00;5.35;;;;;;;35.47;45.04;100561.00;5109832;28;20031;-77
2023/06/16 10:55:42;;;;;;;10.18;5.75;;;;;;;35.53;43.82;100558.34;5098964;28;20028;-76
2023/06/16 10:58:20;;;;;;;11.98;6.00;;;;;;;35.55;45.99;100561.53;5080708;28;20036;-77
2023/06/16 11:01:05;;;;;;;8.73;6.35;;;;;;;35.63;44.07;100562.94;5107043;28;20031;-77
2023/06/16 11:03:33;;;;;;;9.32;5.57;;;;;;;35.61;44.13;100559.72;5103610;28;20058;-77
2023/06/16 11:05:59;;;;;;;10.00;5.70;;;;;;;35.55;44.64;100550.00;5107282;28;20092;-77
2023/06/16 11:08:25;;;;;;;8.45;5.93;;;;;;;35.50;44.13;100553.50;5102074;28;20028;-77
2023/06/16 11:10:51;;;;;;;7.18;5.55;;;;;;;35.43;43.98;100556.63;5104013;28;20118;-77
2023/06/16 11:13:25;;;;;;;9.68;5.75;;;;;;;35.42;44.55;100563.69;5097960;28;20034;-76
2023/06/16 11:15:53;;;;;;;8.55;6.13;;;;;;;35.34;45.06;100555.25;5098200;28;20039;-76
2023/06/16 11:18:22;;;;;;;8.50;6.25;;;;;;;35.32;44.46;100560.66;5079555;28;20110;-77